Time;durP1;ratioP1;P1;durP2;ratioP2;P2;SDS_P1;SDS_P2;PMS_P1;PMS_P2;Temp;Humidity;BMP_temperature;BMP_pressure;BME280_temperature;BME280_humidity;BME280_pressure;Samples;Min_cycle;Max_cycle;Signal;HPM_P1;HPM_P2
2021/12/20 00:02:07;;;;;;;7.57;1.63;;;7.90;99.90;;;;;;5089402;28;20107;-76
2021/12/20 00:04:32;;;;;;;10.95;2.00;;;7.90;99.90;;;;;;5089496;28;20073;-76
2021/12/20 00:06:58;;;;;;;10.45;2.38;;;7.90;99.90;;;;;;5089188;28;20032;-76
2021/12/20 00:09:24;;;;;;;6.13;2.20;;;7.90;99.90;;;;;;5089196;28;20036;-76
2021/12/20 00:11:49;;;;;;;11.23;2.08;;;7.90;99.90;;;;;;5088785;28;20067;-76
2021/12/20 00:14:15;;;;;;;6.32;2.00;;;7.90;99.90;;;;;;5088996;28;20024;-76
2021/12/20 00:16:41;;;;;;;5.95;2.20;;;7.90;99.90;;;;;;5089298;28;20020;-76
2021/12/20 00:19:09;;;;;;;8.57;2.20;;;7.90;99.90;;;;;;5049791;28;20414;-76
2021/12/20 00:21:35;;;;;;;9.32;2.20;;;7.90;99.90;;;;;;5028500;28;20028;-76
2021/12/20 00:24:01;;;;;;;9.05;2.25;;;7.80;99.90;;;;;;5043210;28;20025;-76
2021/12/20 00:26:26;;;;;;;13.73;2.85;;;7.80;99.90;;;;;;5048103;27;20503;-76
2021/12/20 00:28:52;;;;;;;7.93;2.28;;;7.80;99.90;;;;;;5048054;27;20041;-76
2021/12/20 00:31:18;;;;;;;9.00;2.22;;;7.80;99.90;;;;;;5048146;27;20101;-76
2021/12/20 00:33:43;;;;;;;12.60;2.67;;;7.80;99.90;;;;;;5044262;27;20017;-76
2021/12/20 00:36:09;;;;;;;12.57;2.60;;;7.70;99.90;;;;;;5028255;28;20368;-76
2021/12/20 00:41:21;;;;;;;15.40;2.60;;;7.70;99.90;;;;;;5028625;28;20094;-76
2021/12/20 00:43:46;;;;;;;7.68;1.80;;;7.70;99.90;;;;;;5028112;28;20093;-76
2021/12/20 00:46:12;;;;;;;12.02;2.60;;;7.70;99.90;;;;;;5030842;28;20036;-76
2021/12/20 00:48:38;;;;;;;13.35;2.60;;;7.70;99.90;;;;;;5046244;28;20051;-76
2021/12/20 00:51:04;;;;;;;11.05;2.72;;;7.60;99.90;;;;;;5048011;28;20446;-76
2021/12/20 00:53:29;;;;;;;10.95;2.60;;;7.60;99.90;;;;;;5046473;28;20037;-76
2021/12/20 00:55:55;;;;;;;16.77;2.80;;;7.60;99.90;;;;;;5047696;28;20020;-76
2021/12/20 00:58:20;;;;;;;18.45;2.67;;;7.60;99.90;;;;;;5028654;28;20025;-76
2021/12/20 01:00:51;;;;;;;17.73;2.70;;;7.60;99.90;;;;;;5046746;28;20405;-76
2021/12/20 01:03:18;;;;;;;15.60;2.50;;;7.60;99.90;;;;;;5047843;28;20478;-76
2021/12/20 01:05:43;;;;;;;15.35;3.30;;;7.60;99.90;;;;;;5032176;28;20075;-76
2021/12/20 01:08:09;;;;;;;17.98;3.45;;;7.60;99.90;;;;;;5031396;28;20029;-76
2021/12/20 01:10:45;;;;;;;28.95;3.35;;;7.60;99.90;;;;;;5045261;28;20033;-76
2021/12/20 01:13:13;;;;;;;14.20;2.50;;;7.60;99.90;;;;;;5047659;28;20032;-77
2021/12/20 01:15:46;;;;;;;27.23;3.63;;;7.60;99.90;;;;;;5047734;28;20439;-76
2021/12/20 01:18:12;;;;;;;26.58;3.78;;;7.60;99.90;;;;;;5029458;28;20491;-76
2021/12/20 01:20:41;;;;;;;19.98;2.85;;;7.60;99.90;;;;;;5027527;28;20026;-76
2021/12/20 01:23:07;;;;;;;22.15;3.58;;;7.60;99.90;;;;;;5027822;28;20046;-76
2021/12/20 01:25:33;;;;;;;28.38;3.67;;;7.50;99.90;;;;;;5027808;28;20466;-76
2021/12/20 01:27:59;;;;;;;22.85;3.28;;;7.50;99.90;;;;;;5027316;28;20521;-76
2021/12/20 01:30:26;;;;;;;23.60;3.33;;;7.50;99.90;;;;;;5027847;28;20017;-76
2021/12/20 01:32:52;;;;;;;19.38;3.50;;;7.50;99.90;;;;;;5027523;28;20067;-76
2021/12/20 01:35:19;;;;;;;30.48;3.42;;;7.50;99.90;;;;;;5027426;28;20393;-76
2021/12/20 01:37:45;;;;;;;21.58;3.00;;;7.50;99.90;;;;;;5027368;28;20463;-76
2021/12/20 01:40:14;;;;;;;27.65;3.97;;;7.50;99.90;;;;;;5027718;28;20038;-76
2021/12/20 01:42:40;;;;;;;16.17;2.97;;;7.40;99.90;;;;;;5027333;28;20109;-76
2021/12/20 01:45:15;;;;;;;26.75;3.47;;;7.40;99.90;;;;;;5027450;28;20025;-76
2021/12/20 01:47:44;;;;;;;21.10;2.65;;;7.40;99.90;;;;;;5027445;28;20033;-76
2021/12/20 01:52:45;;;;;;;18.67;3.22;;;7.40;99.90;;;;;;5029371;28;20032;-76
2021/12/20 01:55:15;;;;;;;20.73;3.30;;;7.40;99.90;;;;;;5047080;28;20029;-75
2021/12/20 01:57:41;;;;;;;29.40;3.45;;;7.40;99.90;;;;;;5047246;28;20398;-76
2021/12/20 02:00:11;;;;;;;22.27;2.85;;;7.40;99.90;;;;;;5035832;28;20029;-75
2021/12/20 02:02:37;;;;;;;25.02;3.10;;;7.40;99.90;;;;;;5027203;28;20032;-76
2021/12/20 02:05:15;;;;;;;26.27;3.33;;;7.40;99.90;;;;;;5028552;28;20034;-75
2021/12/20 02:07:58;;;;;;;23.67;3.55;;;7.40;99.90;;;;;;5131148;27;20027;-76
2021/12/20 02:10:23;;;;;;;34.85;3.78;;;7.40;99.90;;;;;;5050120;27;20394;-76
2021/12/20 02:12:49;;;;;;;20.13;2.90;;;7.40;99.90;;;;;;5045377;28;20428;-75
2021/12/20 02:15:15;;;;;;;23.75;3.00;;;7.30;99.90;;;;;;5045214;28;20025;-76
2021/12/20 02:17:40;;;;;;;21.77;3.30;;;7.30;99.90;;;;;;5038111;28;20468;-76
2021/12/20 02:20:07;;;;;;;21.45;3.65;;;7.30;99.90;;;;;;5034720;28;20032;-75
2021/12/20 02:22:32;;;;;;;22.10;3.47;;;7.30;99.90;;;;;;5040532;28;20047;-75
2021/12/20 02:24:58;;;;;;;25.25;3.15;;;7.30;99.90;;;;;;5050233;27;20108;-76
2021/12/20 02:27:24;;;;;;;27.23;3.60;;;7.30;99.90;;;;;;5049244;27;20049;-75
2021/12/20 02:30:15;;;;;;;28.38;3.63;;;7.30;99.90;;;;;;5044956;28;20025;-76
2021/12/20 02:38:35;;;;;;;24.17;3.55;;;7.30;99.90;;;;;;4992839;28;20093;-76
2021/12/20 02:41:08;;;;;;;33.03;3.67;;;7.30;99.90;;;;;;5003074;28;20062;-76
2021/12/20 02:43:38;;;;;;;24.55;3.63;;;7.30;99.90;;;;;;4989161;28;20081;-76
2021/12/20 02:46:09;;;;;;;27.38;3.28;;;7.30;99.90;;;;;;4988355;28;20045;-75
2021/12/20 02:48:34;;;;;;;31.75;3.88;;;7.30;99.90;;;;;;4988737;28;20031;-75
2021/12/20 02:51:00;;;;;;;20.65;2.78;;;7.30;99.90;;;;;;4988388;28;20080;-76
2021/12/20 02:53:25;;;;;;;19.88;3.85;;;7.30;99.90;;;;;;4989876;28;20038;-76
2021/12/20 02:55:51;;;;;;;25.48;3.42;;;7.30;99.90;;;;;;5006851;28;20062;-76
2021/12/20 02:58:16;;;;;;;20.83;3.00;;;7.30;99.90;;;;;;5007326;28;20037;-75
2021/12/20 03:00:42;;;;;;;22.10;3.38;;;7.30;99.90;;;;;;5008019;28;20424;-76
2021/12/20 03:03:09;;;;;;;21.88;3.47;;;7.30;99.90;;;;;;5110784;28;20088;-76
2021/12/20 03:05:36;;;;;;;31.15;3.65;;;7.30;99.90;;;;;;5007173;28;20026;-76
2021/12/20 03:08:03;;;;;;;28.70;3.88;;;7.30;99.90;;;;;;5007064;28;20022;-75
2021/12/20 03:10:31;;;;;;;26.27;3.50;;;7.30;99.90;;;;;;5040350;28;20062;-76
2021/12/20 03:12:57;;;;;;;31.33;3.67;;;7.30;99.90;;;;;;5049100;27;20101;-75
2021/12/20 03:15:25;;;;;;;26.15;3.22;;;7.30;99.90;;;;;;5049039;28;20032;-75
2021/12/20 03:17:54;;;;;;;24.67;3.90;;;7.30;99.90;;;;;;5049177;28;20473;-76
2021/12/20 03:20:21;;;;;;;31.13;3.78;;;7.30;99.90;;;;;;5049412;28;20037;-76
2021/12/20 03:22:47;;;;;;;25.00;3.47;;;7.30;99.90;;;;;;5049625;28;20021;-76
2021/12/20 03:25:13;;;;;;;24.80;3.35;;;7.30;99.90;;;;;;5049093;28;20519;-76
2021/12/20 03:27:38;;;;;;;24.33;3.20;;;7.30;99.90;;;;;;5048056;28;20109;-76
2021/12/20 03:30:07;;;;;;;24.55;3.10;;;7.30;99.90;;;;;;5047226;28;20036;-76
2021/12/20 03:32:32;;;;;;;20.52;3.03;;;7.30;99.90;;;;;;5049171;28;20074;-76
2021/12/20 03:34:58;;;;;;;29.40;3.33;;;7.30;99.90;;;;;;5048933;28;20423;-76
2021/12/20 03:37:23;;;;;;;22.13;3.53;;;7.30;99.90;;;;;;5048702;28;20071;-77
2021/12/20 03:39:49;;;;;;;20.70;2.80;;;7.30;99.90;;;;;;5049046;27;20025;-76
2021/12/20 03:42:15;;;;;;;23.67;3.17;;;7.30;99.90;;;;;;5047821;28;20028;-77
2021/12/20 03:44:44;;;;;;;25.70;3.30;;;7.30;99.90;;;;;;5045418;28;20182;-77
2021/12/20 03:47:12;;;;;;;28.25;3.80;;;7.30;99.90;;;;;;5033943;28;20487;-77
2021/12/20 03:49:38;;;;;;;27.00;3.53;;;7.30;99.90;;;;;;5035296;28;20021;-76
2021/12/20 03:52:04;;;;;;;26.13;2.95;;;7.30;99.90;;;;;;5048657;28;20457;-75
2021/12/20 03:54:31;;;;;;;22.83;3.33;;;7.30;99.90;;;;;;5048947;28;20017;-76
2021/12/20 03:56:56;;;;;;;25.10;2.88;;;7.30;99.90;;;;;;5048618;28;20081;-76
2021/12/20 03:59:22;;;;;;;19.13;2.97;;;7.30;99.90;;;;;;5042211;28;20026;-75
2021/12/20 04:01:48;;;;;;;24.58;3.58;;;7.20;99.90;;;;;;5041920;28;20062;-75
2021/12/20 04:04:13;;;;;;;23.30;3.50;;;7.20;99.90;;;;;;5046064;28;20022;-76
2021/12/20 04:06:39;;;;;;;23.70;3.65;;;7.20;99.90;;;;;;5037555;28;20033;-76
2021/12/20 04:09:05;;;;;;;19.27;3.17;;;7.20;99.90;;;;;;5048435;27;20017;-76
2021/12/20 04:11:31;;;;;;;32.72;4.18;;;7.30;99.90;;;;;;5038178;28;20058;-75
2021/12/20 04:13:57;;;;;;;26.40;3.17;;;7.30;99.90;;;;;;5038136;28;20430;-76
2021/12/20 04:16:24;;;;;;;25.05;4.05;;;7.20;99.90;;;;;;5027970;28;20229;-76
2021/12/20 04:18:49;;;;;;;19.20;3.25;;;7.20;99.90;;;;;;5036489;28;20025;-76
2021/12/20 04:21:15;;;;;;;20.98;3.17;;;7.20;99.90;;;;;;5048033;28;20040;-76
2021/12/20 04:23:41;;;;;;;28.30;3.33;;;7.20;99.90;;;;;;5037886;28;20044;-76
2021/12/20 04:26:07;;;;;;;20.63;2.70;;;7.20;99.90;;;;;;5033856;28;20501;-76
2021/12/20 04:28:33;;;;;;;23.85;3.28;;;7.20;99.90;;;;;;5029896;28;20141;-77
2021/12/20 04:30:59;;;;;;;25.73;3.35;;;7.30;99.90;;;;;;5046551;28;20505;-76
2021/12/20 04:33:24;;;;;;;19.70;2.80;;;7.30;99.90;;;;;;5046673;28;20493;-77
2021/12/20 04:35:50;;;;;;;22.17;3.10;;;7.30;99.90;;;;;;5046702;28;20021;-76
2021/12/20 04:38:17;;;;;;;21.35;3.15;;;7.30;99.90;;;;;;5032285;28;20030;-77
2021/12/20 04:40:43;;;;;;;30.05;3.53;;;7.30;99.90;;;;;;5029072;28;20030;-76
2021/12/20 04:43:08;;;;;;;21.08;3.17;;;7.30;99.90;;;;;;5042375;28;20486;-75
2021/12/20 04:45:35;;;;;;;17.30;2.75;;;7.30;99.90;;;;;;5038077;27;20034;-76
2021/12/20 04:48:01;;;;;;;19.80;2.80;;;7.30;99.90;;;;;;5042462;28;20438;-77
2021/12/20 04:50:28;;;;;;;20.40;3.05;;;7.30;99.90;;;;;;5046699;28;20050;-76
2021/12/20 04:52:55;;;;;;;16.23;2.67;;;7.30;99.90;;;;;;5048538;28;20025;-75
2021/12/20 04:55:22;;;;;;;18.02;3.20;;;7.20;99.90;;;;;;5048855;28;20049;-75
2021/12/20 04:57:48;;;;;;;20.00;3.00;;;7.20;99.90;;;;;;5049111;28;20036;-75
2021/12/20 05:00:18;;;;;;;18.55;3.22;;;7.20;99.90;;;;;;5050509;28;20112;-75
2021/12/20 05:02:45;;;;;;;21.17;3.00;;;7.30;99.90;;;;;;5050969;28;20027;-76
2021/12/20 05:05:11;;;;;;;22.30;3.15;;;7.20;99.90;;;;;;5053141;28;20244;-76
2021/12/20 05:07:38;;;;;;;20.30;3.13;;;7.20;99.90;;;;;;5049568;28;20017;-76
2021/12/20 05:10:12;;;;;;;19.45;3.10;;;7.20;99.90;;;;;;5048919;28;20037;-76
2021/12/20 05:12:38;;;;;;;21.05;2.78;;;7.20;99.90;;;;;;5043354;28;20120;-75
2021/12/20 05:15:04;;;;;;;16.58;3.00;;;7.20;99.90;;;;;;5047931;28;20024;-76
2021/12/20 05:17:30;;;;;;;18.13;2.80;;;7.20;99.90;;;;;;5047707;28;20108;-76
2021/12/20 05:19:55;;;;;;;20.67;2.90;;;7.20;99.90;;;;;;5037354;28;20116;-76
2021/12/20 05:22:21;;;;;;;21.40;3.20;;;7.20;99.90;;;;;;5042185;28;20040;-75
2021/12/20 05:24:47;;;;;;;15.27;2.90;;;7.20;99.90;;;;;;5035005;28;20584;-75
2021/12/20 05:27:13;;;;;;;23.98;3.30;;;7.20;99.90;;;;;;5036306;28;20057;-76
2021/12/20 05:29:39;;;;;;;21.77;2.78;;;7.20;99.90;;;;;;5043774;28;20028;-75
2021/12/20 05:32:06;;;;;;;17.73;2.85;;;7.20;99.90;;;;;;5037839;28;20021;-75
2021/12/20 05:34:32;;;;;;;19.55;3.60;;;7.20;99.90;;;;;;5042016;28;20108;-75
2021/12/20 05:36:58;;;;;;;23.88;3.40;;;7.20;99.90;;;;;;5047293;28;20068;-75
2021/12/20 05:39:24;;;;;;;20.23;3.08;;;7.20;99.90;;;;;;5034831;28;20033;-77
2021/12/20 05:41:50;;;;;;;20.80;2.83;;;7.20;99.90;;;;;;5030102;28;20058;-75
2021/12/20 05:44:15;;;;;;;24.13;3.35;;;7.20;99.90;;;;;;5027953;28;20026;-75
2021/12/20 05:46:41;;;;;;;21.42;3.17;;;7.20;99.90;;;;;;5038276;28;20025;-76
2021/12/20 05:49:06;;;;;;;16.60;2.60;;;7.20;99.90;;;;;;5047046;27;20021;-75
2021/12/20 05:51:32;;;;;;;19.58;2.90;;;7.20;99.90;;;;;;5047227;28;20394;-75
2021/12/20 05:53:58;;;;;;;19.50;2.92;;;7.20;99.90;;;;;;5038994;27;20049;-75
2021/12/20 05:56:23;;;;;;;25.17;3.17;;;7.20;99.90;;;;;;5031614;28;20485;-74
2021/12/20 05:58:49;;;;;;;21.20;2.88;;;7.20;99.90;;;;;;5031018;28;20449;-75
2021/12/20 06:01:14;;;;;;;18.02;3.33;;;7.20;99.90;;;;;;5030474;28;20491;-76
2021/12/20 06:03:40;;;;;;;23.50;3.45;;;7.20;99.90;;;;;;5030063;28;20018;-76
2021/12/20 06:06:08;;;;;;;19.67;3.00;;;7.20;99.90;;;;;;5045335;28;20101;-76
2021/12/20 06:08:34;;;;;;;21.92;3.40;;;7.20;99.90;;;;;;5030434;28;20029;-76
2021/12/20 06:11:00;;;;;;;28.08;3.42;;;7.20;99.90;;;;;;5030589;28;20033;-76
2021/12/20 06:13:25;;;;;;;12.70;2.25;;;7.20;99.90;;;;;;5032829;28;20038;-75
2021/12/20 06:15:51;;;;;;;17.08;2.53;;;7.20;99.90;;;;;;5031785;28;20116;-76
2021/12/20 06:18:16;;;;;;;16.85;2.47;;;7.20;99.90;;;;;;5032582;28;20055;-74
2021/12/20 06:20:44;;;;;;;20.88;2.70;;;7.20;99.90;;;;;;5047922;28;20112;-75
2021/12/20 06:23:11;;;;;;;23.75;3.33;;;7.20;99.90;;;;;;5050128;27;20104;-74
2021/12/20 06:25:36;;;;;;;12.68;2.42;;;7.20;99.90;;;;;;5037226;28;20065;-75
2021/12/20 06:28:02;;;;;;;20.88;3.15;;;7.20;99.90;;;;;;5062931;27;20069;-75
2021/12/20 06:30:28;;;;;;;15.25;2.83;;;7.20;99.90;;;;;;5055577;27;20048;-75
2021/12/20 06:32:54;;;;;;;22.85;2.95;;;7.20;99.90;;;;;;5030534;28;20099;-75
2021/12/20 06:35:20;;;;;;;18.40;2.53;;;7.20;99.90;;;;;;5032847;28;20364;-75
2021/12/20 06:37:49;;;;;;;18.80;2.45;;;7.20;99.90;;;;;;5030066;28;20416;-75
2021/12/20 06:40:14;;;;;;;19.40;2.70;;;7.20;99.90;;;;;;5041458;28;20032;-75
2021/12/20 06:42:40;;;;;;;24.13;3.55;;;7.20;99.90;;;;;;5043551;28;20079;-75
2021/12/20 06:45:07;;;;;;;17.67;2.75;;;7.20;99.90;;;;;;5034040;28;20026;-76
2021/12/20 06:47:35;;;;;;;18.10;2.50;;;7.20;99.90;;;;;;5029976;28;20017;-75
2021/12/20 06:50:01;;;;;;;14.13;2.88;;;7.20;99.90;;;;;;5030696;28;20060;-75
2021/12/20 06:52:27;;;;;;;13.57;2.20;;;7.20;99.90;;;;;;5029946;28;20064;-76
2021/12/20 06:54:52;;;;;;;13.40;2.40;;;7.20;99.90;;;;;;5031683;28;20067;-77
2021/12/20 06:57:20;;;;;;;16.73;2.58;;;7.20;99.90;;;;;;5036902;28;20043;-75
2021/12/20 06:59:46;;;;;;;16.52;2.47;;;7.20;99.90;;;;;;5029611;28;20018;-75
2021/12/20 07:02:11;;;;;;;18.27;2.50;;;7.20;99.90;;;;;;5029336;28;20041;-75
2021/12/20 07:04:37;;;;;;;14.48;2.28;;;7.20;99.90;;;;;;5031598;28;20033;-75
2021/12/20 07:07:03;;;;;;;20.08;2.40;;;7.20;99.90;;;;;;5031799;28;20021;-75
2021/12/20 07:09:28;;;;;;;13.07;2.20;;;7.20;99.90;;;;;;5055221;27;20033;-75
2021/12/20 07:11:54;;;;;;;14.30;2.65;;;7.20;99.90;;;;;;5040938;28;20405;-75
2021/12/20 07:14:20;;;;;;;19.92;2.42;;;7.20;99.90;;;;;;5044694;28;20401;-75
2021/12/20 07:16:45;;;;;;;17.52;2.50;;;7.20;99.90;;;;;;5036190;28;20025;-76
2021/12/20 07:19:11;;;;;;;12.85;2.22;;;7.20;99.90;;;;;;5042664;28;20203;-75
2021/12/20 07:21:37;;;;;;;14.13;2.60;;;7.20;99.90;;;;;;5031897;27;20057;-75
2021/12/20 07:24:03;;;;;;;14.73;2.20;;;7.20;99.90;;;;;;5043269;28;20580;-76
2021/12/20 07:26:30;;;;;;;16.33;2.50;;;7.20;99.90;;;;;;5041077;28;20072;-76
2021/12/20 07:28:55;;;;;;;18.13;2.75;;;7.20;99.90;;;;;;5027667;28;20601;-76
2021/12/20 07:31:21;;;;;;;16.15;2.47;;;7.20;99.90;;;;;;5031156;28;20024;-75
2021/12/20 07:33:48;;;;;;;12.57;2.65;;;7.20;99.90;;;;;;5027916;28;20021;-75
2021/12/20 07:36:15;;;;;;;14.18;2.22;;;7.10;99.90;;;;;;5033348;28;20029;-75
2021/12/20 07:38:41;;;;;;;13.77;2.10;;;7.20;99.90;;;;;;5041606;28;20456;-75
2021/12/20 07:41:07;;;;;;;16.08;2.13;;;7.10;99.90;;;;;;5028371;28;20036;-75
2021/12/20 07:43:33;;;;;;;19.67;2.40;;;7.10;99.90;;;;;;5031036;28;20345;-75
2021/12/20 07:45:58;;;;;;;11.02;2.38;;;7.10;99.90;;;;;;5038447;27;20047;-75
2021/12/20 07:48:25;;;;;;;13.27;2.08;;;7.10;99.90;;;;;;5028877;28;20033;-75
2021/12/20 07:50:51;;;;;;;13.40;2.20;;;7.10;99.90;;;;;;5028476;28;20026;-75
2021/12/20 07:53:17;;;;;;;11.50;2.10;;;7.10;99.90;;;;;;5040746;28;20406;-75
2021/12/20 07:55:43;;;;;;;14.02;2.30;;;7.10;99.90;;;;;;5042021;28;20033;-75
2021/12/20 07:58:09;;;;;;;12.77;2.20;;;7.10;99.90;;;;;;5036252;28;20513;-75
2021/12/20 08:00:35;;;;;;;18.30;2.28;;;7.10;99.90;;;;;;5039877;28;20132;-75
2021/12/20 08:03:01;;;;;;;11.90;2.50;;;7.10;99.90;;;;;;5034371;28;20126;-75
2021/12/20 08:05:28;;;;;;;11.77;2.15;;;7.10;99.90;;;;;;5035322;28;20146;-75
2021/12/20 08:07:54;;;;;;;9.75;2.65;;;7.10;99.90;;;;;;5030849;28;20042;-75
2021/12/20 08:10:22;;;;;;;18.25;2.30;;;7.10;99.90;;;;;;5047374;28;20030;-75
2021/12/20 08:12:48;;;;;;;8.80;2.08;;;7.10;99.90;;;;;;5030575;28;20248;-76
2021/12/20 08:15:15;;;;;;;15.75;2.47;;;7.10;99.90;;;;;;5030396;28;20033;-77
2021/12/20 08:17:41;;;;;;;9.43;2.10;;;7.10;99.90;;;;;;5027487;28;20021;-76
2021/12/20 08:20:08;;;;;;;13.70;1.92;;;7.10;99.90;;;;;;5038802;28;21303;-74
2021/12/20 08:22:34;;;;;;;13.45;2.10;;;7.10;99.90;;;;;;5048278;28;20025;-75
2021/12/20 08:25:00;;;;;;;14.77;2.10;;;7.10;99.90;;;;;;5041416;28;20094;-75
2021/12/20 08:27:26;;;;;;;15.30;2.35;;;7.10;99.90;;;;;;5043537;28;20049;-75
2021/12/20 08:29:52;;;;;;;15.05;2.20;;;7.10;99.90;;;;;;5033189;28;20026;-75
2021/12/20 08:32:18;;;;;;;10.30;2.67;;;7.10;99.90;;;;;;5040672;27;20270;-75
2021/12/20 08:34:44;;;;;;;11.50;2.70;;;7.10;99.90;;;;;;5029061;28;20033;-76
2021/12/20 08:37:09;;;;;;;13.98;3.35;;;7.10;99.90;;;;;;5029961;28;20038;-76
2021/12/20 08:39:35;;;;;;;14.90;3.13;;;7.10;99.90;;;;;;5030397;28;20028;-76
2021/12/20 08:42:03;;;;;;;16.48;2.95;;;7.20;99.90;;;;;;5028629;28;20044;-76
2021/12/20 08:44:29;;;;;;;9.82;2.67;;;7.20;99.90;;;;;;5045560;28;20099;-76
2021/12/20 08:46:54;;;;;;;13.32;3.05;;;7.20;99.90;;;;;;5033786;28;20097;-76
2021/12/20 08:49:20;;;;;;;18.25;3.30;;;7.20;99.90;;;;;;5031411;28;20033;-76
2021/12/20 08:51:46;;;;;;;12.48;2.80;;;7.20;99.90;;;;;;5039460;28;20032;-76
2021/12/20 08:54:13;;;;;;;11.07;2.83;;;7.20;99.90;;;;;;5041646;28;20032;-75
2021/12/20 08:56:39;;;;;;;15.35;2.90;;;7.20;99.90;;;;;;5037258;28;20031;-76
2021/12/20 08:59:05;;;;;;;14.80;2.60;;;7.20;99.90;;;;;;5028688;28;20033;-75
2021/12/20 09:01:31;;;;;;;15.00;2.53;;;7.20;99.90;;;;;;5030235;28;20028;-75
2021/12/20 09:03:57;;;;;;;19.48;2.60;;;7.20;99.90;;;;;;5032561;28;20071;-75
2021/12/20 09:06:24;;;;;;;15.35;2.35;;;7.20;99.90;;;;;;5027860;28;20356;-76
2021/12/20 09:08:53;;;;;;;16.35;2.25;;;7.20;99.90;;;;;;5029936;28;20394;-76
2021/12/20 09:11:19;;;;;;;12.65;2.22;;;7.30;99.90;;;;;;5028216;28;20044;-76
2021/12/20 09:13:45;;;;;;;14.88;2.60;;;7.30;99.90;;;;;;5026492;28;20021;-76
2021/12/20 09:16:11;;;;;;;13.07;2.72;;;7.30;99.90;;;;;;5038251;28;20025;-76
2021/12/20 09:18:37;;;;;;;16.67;2.60;;;7.30;99.90;;;;;;5030800;28;20382;-76
2021/12/20 09:21:02;;;;;;;17.63;2.88;;;7.30;99.90;;;;;;5029952;28;20030;-76
2021/12/20 09:23:31;;;;;;;10.50;2.83;;;7.30;99.90;;;;;;5033689;28;20017;-76
2021/12/20 09:25:57;;;;;;;16.63;2.97;;;7.30;99.90;;;;;;5036578;28;20260;-76
2021/12/20 09:28:22;;;;;;;17.80;3.03;;;7.30;99.90;;;;;;5040230;27;20129;-75
2021/12/20 09:30:48;;;;;;;18.88;3.25;;;7.30;99.90;;;;;;5032439;27;20017;-76
2021/12/20 09:33:15;;;;;;;16.20;3.03;;;7.40;99.90;;;;;;5031828;28;20100;-76
2021/12/20 09:35:41;;;;;;;16.10;2.85;;;7.40;99.90;;;;;;5036747;28;20083;-76
2021/12/20 09:38:10;;;;;;;16.80;2.70;;;7.40;99.90;;;;;;5034949;28;20022;-75
2021/12/20 09:40:40;;;;;;;15.57;3.08;;;7.40;99.90;;;;;;5038960;28;20122;-74
2021/12/20 09:43:09;;;;;;;14.93;2.92;;;7.40;99.90;;;;;;5032676;28;20028;-75
2021/12/20 09:45:35;;;;;;;15.23;2.75;;;7.40;99.90;;;;;;5035964;28;20101;-75
2021/12/20 09:48:01;;;;;;;18.45;3.60;;;7.50;99.90;;;;;;5030158;28;20030;-76
2021/12/20 09:50:28;;;;;;;18.80;2.65;;;7.50;99.90;;;;;;5032648;28;20112;-75
2021/12/20 09:52:53;;;;;;;13.93;2.70;;;7.50;99.90;;;;;;5030116;28;20070;-75
2021/12/20 09:55:19;;;;;;;19.33;2.90;;;7.50;99.90;;;;;;5029175;28;20025;-76
2021/12/20 09:57:48;;;;;;;14.75;3.00;;;7.60;99.90;;;;;;5037717;28;20055;-76
2021/12/20 10:00:16;;;;;;;17.85;2.80;;;7.60;99.90;;;;;;5032552;28;20069;-76
2021/12/20 10:02:44;;;;;;;15.55;2.80;;;7.60;99.90;;;;;;5046290;28;20113;-76
2021/12/20 10:05:12;;;;;;;11.50;2.47;;;7.60;99.90;;;;;;5034189;28;20022;-76
2021/12/20 10:07:39;;;;;;;15.55;2.85;;;7.70;99.90;;;;;;5033443;28;20018;-76
2021/12/20 10:10:06;;;;;;;15.60;2.60;;;7.70;99.90;;;;;;5032578;28;20150;-76
2021/12/20 10:12:31;;;;;;;9.35;1.80;;;7.70;99.90;;;;;;5030126;28;20029;-76
2021/12/20 10:15:02;;;;;;;17.33;2.33;;;7.70;99.90;;;;;;5032214;28;20025;-76
2021/12/20 10:17:35;;;;;;;9.93;2.33;;;7.80;99.90;;;;;;5035471;28;20104;-76
2021/12/20 10:20:23;;;;;;;13.93;2.30;;;7.80;99.90;;;;;;5037356;28;20433;-76
2021/12/20 10:22:50;;;;;;;10.30;2.08;;;7.80;99.90;;;;;;5037983;28;20032;-76
2021/12/20 10:25:36;;;;;;;10.57;2.50;;;7.90;99.90;;;;;;5036020;28;20395;-76
2021/12/20 10:28:18;;;;;;;13.07;2.53;;;7.90;99.90;;;;;;5037424;28;20053;-76
2021/12/20 10:30:56;;;;;;;12.75;2.38;;;7.90;99.90;;;;;;5036561;28;20045;-76
2021/12/20 10:33:23;;;;;;;18.50;2.42;;;7.90;99.90;;;;;;5042929;28;20100;-76
2021/12/20 10:35:58;;;;;;;10.20;2.03;;;8.00;99.90;;;;;;5044222;28;20025;-76
2021/12/20 10:38:25;;;;;;;15.82;2.97;;;8.00;99.90;;;;;;5054437;28;20512;-76
2021/12/20 10:41:00;;;;;;;13.82;2.28;;;8.00;99.90;;;;;;5038769;28;20125;-76
2021/12/20 10:43:39;;;;;;;14.83;2.37;;;8.00;99.90;;;;;;5037319;27;20477;-76
2021/12/20 10:46:17;;;;;;;13.07;2.50;;;8.00;99.90;;;;;;5030695;28;20113;-76
2021/12/20 10:48:46;;;;;;;15.23;2.53;;;8.10;99.90;;;;;;5029804;28;20500;-76
2021/12/20 10:51:51;;;;;;;10.40;2.13;;;8.00;99.90;;;;;;5029617;28;20501;-76
2021/12/20 10:54:21;;;;;;;11.73;2.33;;;8.10;99.90;;;;;;5101742;28;20058;-77
2021/12/20 10:56:53;;;;;;;9.95;1.63;;;8.10;99.90;;;;;;5109924;28;20070;-77
2021/12/20 10:59:23;;;;;;;13.50;2.28;;;8.20;99.90;;;;;;5103326;28;20523;-75
2021/12/20 11:04:42;;;;;;;16.53;2.07;;;8.20;99.90;;;;;;5110613;28;20549;-76
2021/12/20 11:09:38;;;;;;;10.93;1.98;;;8.20;99.90;;;;;;5103320;28;20035;-76
2021/12/20 11:12:10;;;;;;;11.23;1.90;;;8.30;99.90;;;;;;5106510;28;20106;-76
2021/12/20 11:14:38;;;;;;;11.82;1.90;;;8.30;99.90;;;;;;5085108;28;20088;-76
2021/12/20 11:17:06;;;;;;;11.60;1.70;;;8.30;99.90;;;;;;5103725;28;20020;-75
2021/12/20 11:19:32;;;;;;;9.63;1.60;;;8.40;99.90;;;;;;5100626;28;20108;-76
2021/12/20 11:22:05;;;;;;;9.90;1.95;;;8.40;99.90;;;;;;5103134;28;20032;-75
2021/12/20 11:24:33;;;;;;;17.40;3.03;;;8.40;99.90;;;;;;5109768;28;20067;-76
2021/12/20 11:27:02;;;;;;;11.10;1.70;;;8.40;99.90;;;;;;5090720;28;20027;-76
2021/12/20 11:29:27;;;;;;;9.27;1.70;;;8.40;99.90;;;;;;5036937;28;20037;-76
2021/12/20 11:31:54;;;;;;;7.90;1.48;;;8.40;99.90;;;;;;5029685;28;20048;-75
2021/12/20 11:34:21;;;;;;;12.82;2.05;;;8.40;99.90;;;;;;5044532;28;20120;-75
2021/12/20 11:36:47;;;;;;;5.90;1.58;;;8.40;99.90;;;;;;5036744;28;20021;-75
2021/12/20 11:39:13;;;;;;;9.50;1.90;;;8.40;99.90;;;;;;5039214;28;20106;-75
2021/12/20 11:41:39;;;;;;;8.10;1.83;;;8.40;99.90;;;;;;5050360;28;20033;-76
2021/12/20 11:44:07;;;;;;;10.68;1.80;;;8.40;99.90;;;;;;5046236;27;20025;-75
2021/12/20 11:47:08;;;;;;;7.57;1.50;;;8.40;99.90;;;;;;5030718;28;20025;-76
2021/12/20 11:49:36;;;;;;;13.15;2.10;;;8.40;99.90;;;;;;5031695;28;20048;-76
2021/12/20 11:52:13;;;;;;;14.13;1.77;;;8.40;99.90;;;;;;5030971;28;20025;-76
2021/12/20 11:54:53;;;;;;;9.02;1.60;;;8.40;99.90;;;;;;5044380;28;20151;-76
2021/12/20 11:57:28;;;;;;;8.73;1.75;;;8.40;99.90;;;;;;5048957;28;20025;-75
2021/12/20 12:00:19;;;;;;;9.27;1.90;;;8.40;99.90;;;;;;5040368;28;20032;-76
2021/12/20 12:02:47;;;;;;;9.48;1.77;;;8.40;99.90;;;;;;5038547;28;20379;-76
2021/12/20 12:05:26;;;;;;;9.45;1.83;;;8.40;99.90;;;;;;5036562;28;20070;-77
2021/12/20 12:07:52;;;;;;;9.57;1.88;;;8.40;99.90;;;;;;5054821;28;20128;-77
2021/12/20 12:10:18;;;;;;;11.82;1.80;;;8.40;99.90;;;;;;5036486;27;20030;-77
2021/12/20 12:12:46;;;;;;;10.05;2.03;;;8.40;99.90;;;;;;5035144;27;20018;-76
2021/12/20 12:15:39;;;;;;;10.43;1.90;;;8.30;99.90;;;;;;5035390;28;20244;-75
2021/12/20 12:18:10;;;;;;;9.40;1.45;;;8.30;99.90;;;;;;5036565;28;20028;-77
2021/12/20 12:20:47;;;;;;;7.47;2.30;;;8.30;99.90;;;;;;5034332;28;20036;-77
2021/12/20 12:23:18;;;;;;;8.95;1.35;;;8.30;99.90;;;;;;5035043;28;20038;-77
2021/12/20 12:25:52;;;;;;;7.38;1.70;;;8.20;99.90;;;;;;5029187;27;20521;-77
2021/12/20 12:28:23;;;;;;;6.07;1.75;;;8.20;99.90;;;;;;5049154;27;20045;-77
2021/12/20 12:31:02;;;;;;;7.15;1.20;;;8.20;99.90;;;;;;5028171;28;20021;-77
2021/12/20 12:33:31;;;;;;;6.43;1.33;;;8.20;99.90;;;;;;5035054;28;20407;-77
2021/12/20 12:36:00;;;;;;;4.63;1.10;;;8.10;99.90;;;;;;5041062;28;20114;-77
2021/12/20 12:38:37;;;;;;;6.70;0.98;;;8.10;99.90;;;;;;5047374;28;20417;-77
2021/12/20 12:41:07;;;;;;;7.13;1.13;;;8.10;99.90;;;;;;5031330;28;20517;-77
2021/12/20 12:44:05;;;;;;;5.55;1.15;;;8.10;99.90;;;;;;5029563;28;20029;-77
2021/12/20 12:46:41;;;;;;;4.80;0.98;;;8.10;99.90;;;;;;5031507;27;20043;-76
2021/12/20 12:49:26;;;;;;;8.20;1.10;;;8.00;99.90;;;;;;5044498;28;20021;-76
2021/12/20 12:51:52;;;;;;;3.22;1.23;;;8.10;99.90;;;;;;5036123;28;20029;-76
2021/12/20 12:54:33;;;;;;;3.33;1.08;;;8.10;99.90;;;;;;5037518;28;20094;-76
2021/12/20 12:57:11;;;;;;;3.55;1.05;;;8.00;99.90;;;;;;5040548;28;20432;-76
2021/12/20 12:59:47;;;;;;;9.77;1.30;;;8.00;99.90;;;;;;5038001;28;20031;-76
2021/12/20 13:02:22;;;;;;;6.22;1.00;;;8.00;99.90;;;;;;5034223;28;20479;-76
2021/12/20 13:05:07;;;;;;;4.95;1.15;;;8.00;99.90;;;;;;5029131;28;20082;-76
2021/12/20 13:07:36;;;;;;;3.08;1.15;;;8.00;99.90;;;;;;5035639;28;20404;-77
2021/12/20 13:10:06;;;;;;;4.03;1.20;;;8.00;99.90;;;;;;5033944;28;20081;-75